sensor_id;sensor_type;location;lat;lon;timestamp;pressure;altitude;pressure_sealevel;temperature;humidity
22389;BME280;11362;48.102;11.620;2023-05-25T00:00:11;95523.72;;;23.67;45.98
22389;BME280;11362;48.102;11.620;2023-05-25T00:02:37;95532.06;;;23.67;45.98
22389;BME280;11362;48.102;11.620;2023-05-25T00:05:03;95530.47;;;23.66;46.07
22389;BME280;11362;48.102;11.620;2023-05-25T00:07:28;95538.81;;;23.66;46.11
22389;BME280;11362;48.102;11.620;2023-05-25T00:09:53;95533.25;;;23.66;45.90
22389;BME280;11362;48.102;11.620;2023-05-25T00:12:19;95539.59;;;23.67;46.02
22389;BME280;11362;48.102;11.620;2023-05-25T00:14:44;95537.22;;;23.65;46.21
22389;BME280;11362;48.102;11.620;2023-05-25T00:17:10;95534.84;;;23.67;46.12
22389;BME280;11362;48.102;11.620;2023-05-25T00:19:35;95535.66;;;23.64;45.93
22389;BME280;11362;48.102;11.620;2023-05-25T00:22:01;95542.78;;;23.65;45.90
22389;BME280;11362;48.102;11.620;2023-05-25T00:24:27;95547.53;;;23.65;45.94
22389;BME280;11362;48.102;11.620;2023-05-25T00:26:53;95538.00;;;23.66;45.89
22389;BME280;11362;48.102;11.620;2023-05-25T00:29:18;95524.97;;;23.63;45.76
22389;BME280;11362;48.102;11.620;2023-05-25T00:31:43;95523.00;;;23.63;45.92
22389;BME280;11362;48.102;11.620;2023-05-25T00:34:09;95517.81;;;23.65;45.86
22389;BME280;11362;48.102;11.620;2023-05-25T00:36:34;95508.34;;;23.63;45.91
22389;BME280;11362;48.102;11.620;2023-05-25T00:38:59;95517.44;;;23.63;46.16
22389;BME280;11362;48.102;11.620;2023-05-25T00:41:26;95515.44;;;23.64;45.97
22389;BME280;11362;48.102;11.620;2023-05-25T00:43:52;95509.91;;;23.64;45.97
22389;BME280;11362;48.102;11.620;2023-05-25T00:46:17;95516.25;;;23.64;46.04
22389;BME280;11362;48.102;11.620;2023-05-25T00:48:42;95516.66;;;23.63;45.96
22389;BME280;11362;48.102;11.620;2023-05-25T00:51:09;95514.69;;;23.63;45.87
22389;BME280;11362;48.102;11.620;2023-05-25T00:53:35;95498.03;;;23.63;45.93
22389;BME280;11362;48.102;11.620;2023-05-25T00:56:13;95498.44;;;23.62;45.81
22389;BME280;11362;48.102;11.620;2023-05-25T00:58:39;95499.22;;;23.62;45.83
22389;BME280;11362;48.102;11.620;2023-05-25T01:01:08;95508.34;;;23.63;45.97
22389;BME280;11362;48.102;11.620;2023-05-25T01:03:34;95512.31;;;23.62;45.86
22389;BME280;11362;48.102;11.620;2023-05-25T01:06:01;95514.69;;;23.63;45.87
22389;BME280;11362;48.102;11.620;2023-05-25T01:08:29;95513.06;;;23.62;45.95
22389;BME280;11362;48.102;11.620;2023-05-25T01:10:59;95515.09;;;23.62;45.97
22389;BME280;11362;48.102;11.620;2023-05-25T01:13:27;95515.44;;;23.64;45.72
22389;BME280;11362;48.102;11.620;2023-05-25T01:15:54;95515.09;;;23.62;45.83
22389;BME280;11362;48.102;11.620;2023-05-25T01:18:20;95508.75;;;23.61;45.86
22389;BME280;11362;48.102;11.620;2023-05-25T01:20:56;95514.28;;;23.61;46.16
22389;BME280;11362;48.102;11.620;2023-05-25T01:23:29;95504.75;;;23.62;45.84
22389;BME280;11362;48.102;11.620;2023-05-25T01:25:59;95511.50;;;23.61;45.86
22389;BME280;11362;48.102;11.620;2023-05-25T01:28:29;95516.28;;;23.61;45.79
22389;BME280;11362;48.102;11.620;2023-05-25T01:30:58;95507.16;;;23.60;45.80
22389;BME280;11362;48.102;11.620;2023-05-25T01:33:24;95509.16;;;23.60;45.69
22389;BME280;11362;48.102;11.620;2023-05-25T01:35:51;95508.75;;;23.61;45.90
22389;BME280;11362;48.102;11.620;2023-05-25T01:38:17;95504.38;;;23.60;45.84
22389;BME280;11362;48.102;11.620;2023-05-25T01:40:43;95507.16;;;23.60;45.71
22389;BME280;11362;48.102;11.620;2023-05-25T01:43:08;95514.72;;;23.60;45.82
22389;BME280;11362;48.102;11.620;2023-05-25T01:45:34;95516.69;;;23.59;45.75
22389;BME280;11362;48.102;11.620;2023-05-25T01:50:57;95510.75;;;23.61;45.68
22389;BME280;11362;48.102;11.620;2023-05-25T01:53:29;95523.03;;;23.60;45.77
22389;BME280;11362;48.102;11.620;2023-05-25T01:56:15;95516.69;;;23.59;45.58
22389;BME280;11362;48.102;11.620;2023-05-25T01:58:43;95523.81;;;23.60;45.88
22389;BME280;11362;48.102;11.620;2023-05-25T02:01:09;95524.59;;;23.61;45.58
22389;BME280;11362;48.102;11.620;2023-05-25T02:03:36;95521.03;;;23.60;45.67
22389;BME280;11362;48.102;11.620;2023-05-25T02:06:02;95525.00;;;23.59;45.59
22389;BME280;11362;48.102;11.620;2023-05-25T02:08:28;95514.31;;;23.58;45.62
22389;BME280;11362;48.102;11.620;2023-05-25T02:10:53;95518.25;;;23.60;45.73
22389;BME280;11362;48.102;11.620;2023-05-25T02:13:19;95511.13;;;23.59;45.58
22389;BME280;11362;48.102;11.620;2023-05-25T02:15:44;95514.72;;;23.60;45.67
22389;BME280;11362;48.102;11.620;2023-05-25T02:18:09;95506.41;;;23.60;45.64
22389;BME280;11362;48.102;11.620;2023-05-25T02:20:35;95509.56;;;23.58;45.69
22389;BME280;11362;48.102;11.620;2023-05-25T02:23:01;95516.69;;;23.59;45.58
22389;BME280;11362;48.102;11.620;2023-05-25T02:25:26;95517.88;;;23.58;45.78
22389;BME280;11362;48.102;11.620;2023-05-25T02:27:51;95510.34;;;23.59;45.58
22389;BME280;11362;48.102;11.620;2023-05-25T02:30:17;95503.22;;;23.58;45.46
22389;BME280;11362;48.102;11.620;2023-05-25T02:32:42;95509.16;;;23.60;45.59
22389;BME280;11362;48.102;11.620;2023-05-25T02:35:08;95500.44;;;23.58;45.51
22389;BME280;11362;48.102;11.620;2023-05-25T02:37:33;95504.03;;;23.58;45.82
22389;BME280;11362;48.102;11.620;2023-05-25T02:39:59;95505.59;;;23.59;45.63
22389;BME280;11362;48.102;11.620;2023-05-25T02:42:24;95507.56;;;23.59;45.60
22389;BME280;11362;48.102;11.620;2023-05-25T02:44:49;95509.56;;;23.58;45.67
22389;BME280;11362;48.102;11.620;2023-05-25T02:47:15;95500.44;;;23.58;45.54
22389;BME280;11362;48.102;11.620;2023-05-25T02:49:40;95497.69;;;23.58;45.42
22389;BME280;11362;48.102;11.620;2023-05-25T02:52:05;95498.47;;;23.58;45.47
22389;BME280;11362;48.102;11.620;2023-05-25T02:54:31;95492.13;;;23.58;45.42
22389;BME280;11362;48.102;11.620;2023-05-25T02:56:56;95492.94;;;23.58;45.37
22389;BME280;11362;48.102;11.620;2023-05-25T02:59:21;95486.59;;;23.58;45.57
22389;BME280;11362;48.102;11.620;2023-05-25T03:01:47;95499.25;;;23.59;45.51
22389;BME280;11362;48.102;11.620;2023-05-25T03:04:12;95494.50;;;23.59;45.18
22389;BME280;11362;48.102;11.620;2023-05-25T03:06:37;95492.13;;;23.58;45.40
22389;BME280;11362;48.102;11.620;2023-05-25T03:09:02;95497.28;;;23.59;45.54
22389;BME280;11362;48.102;11.620;2023-05-25T03:11:28;95505.97;;;23.61;45.45
22389;BME280;11362;48.102;11.620;2023-05-25T03:13:53;95504.69;;;23.69;45.27
22389;BME280;11362;48.102;11.620;2023-05-25T03:16:18;95508.63;;;23.72;45.25
22389;BME280;11362;48.102;11.620;2023-05-25T03:18:44;95515.34;;;23.74;45.09
22389;BME280;11362;48.102;11.620;2023-05-25T03:21:09;95515.75;;;23.73;45.24
22389;BME280;11362;48.102;11.620;2023-05-25T03:23:34;95517.72;;;23.76;45.17
22389;BME280;11362;48.102;11.620;2023-05-25T03:25:59;95512.56;;;23.74;45.26
22389;BME280;11362;48.102;11.620;2023-05-25T03:28:25;95508.59;;;23.75;45.07
22389;BME280;11362;48.102;11.620;2023-05-25T03:30:50;95507.38;;;23.76;44.88
22389;BME280;11362;48.102;11.620;2023-05-25T03:33:15;95509.00;;;23.77;44.97
22389;BME280;11362;48.102;11.620;2023-05-25T03:35:41;95502.25;;;23.78;45.14
22389;BME280;11362;48.102;11.620;2023-05-25T03:38:06;95503.81;;;23.79;45.05
22389;BME280;11362;48.102;11.620;2023-05-25T03:40:31;95503.81;;;23.79;44.95
22389;BME280;11362;48.102;11.620;2023-05-25T03:42:56;95509.34;;;23.79;45.15
22389;BME280;11362;48.102;11.620;2023-05-25T03:45:22;95514.09;;;23.79;45.05
22389;BME280;11362;48.102;11.620;2023-05-25T03:47:47;95512.53;;;23.78;45.10
22389;BME280;11362;48.102;11.620;2023-05-25T03:50:12;95510.16;;;23.76;45.23
22389;BME280;11362;48.102;11.620;2023-05-25T03:52:38;95514.09;;;23.79;45.19
22389;BME280;11362;48.102;11.620;2023-05-25T03:55:04;95519.66;;;23.79;45.03
22389;BME280;11362;48.102;11.620;2023-05-25T03:57:29;95522.84;;;23.77;45.29
22389;BME280;11362;48.102;11.620;2023-05-25T03:59:55;95527.59;;;23.77;45.33
22389;BME280;11362;48.102;11.620;2023-05-25T04:02:20;95520.88;;;23.74;45.24
22389;BME280;11362;48.102;11.620;2023-05-25T04:04:45;95523.66;;;23.74;45.12
22389;BME280;11362;48.102;11.620;2023-05-25T04:07:11;95520.50;;;23.76;45.22
22389;BME280;11362;48.102;11.620;2023-05-25T04:09:36;95527.25;;;23.75;45.04
22389;BME280;11362;48.102;11.620;2023-05-25T04:12:01;95525.66;;;23.74;45.23
22389;BME280;11362;48.102;11.620;2023-05-25T04:14:27;95531.59;;;23.76;45.03
22389;BME280;11362;48.102;11.620;2023-05-25T04:16:52;95537.53;;;23.74;44.90
22389;BME280;11362;48.102;11.620;2023-05-25T04:19:17;95531.97;;;23.74;45.09
22389;BME280;11362;48.102;11.620;2023-05-25T04:21:42;95539.91;;;23.76;45.15
22389;BME280;11362;48.102;11.620;2023-05-25T04:24:08;95537.47;;;23.81;45.07
22389;BME280;11362;48.102;11.620;2023-05-25T04:26:33;95531.53;;;23.79;45.20
22389;BME280;11362;48.102;11.620;2023-05-25T04:28:59;95536.69;;;23.81;44.83
22389;BME280;11362;48.102;11.620;2023-05-25T04:31:24;95536.69;;;23.81;45.06
22389;BME280;11362;48.102;11.620;2023-05-25T04:33:49;95529.94;;;23.82;44.92
22389;BME280;11362;48.102;11.620;2023-05-25T04:36:14;95532.34;;;23.76;45.17
22389;BME280;11362;48.102;11.620;2023-05-25T04:38:40;95536.72;;;23.77;45.01
22389;BME280;11362;48.102;11.620;2023-05-25T04:41:06;95539.53;;;23.74;45.08
22389;BME280;11362;48.102;11.620;2023-05-25T04:43:32;95536.75;;;23.74;45.20
22389;BME280;11362;48.102;11.620;2023-05-25T04:45:58;95540.31;;;23.74;45.21
22389;BME280;11362;48.102;11.620;2023-05-25T04:48:23;95530.06;;;23.71;45.09
22389;BME280;11362;48.102;11.620;2023-05-25T04:50:49;95535.97;;;23.73;45.03
22389;BME280;11362;48.102;11.620;2023-05-25T04:53:14;95541.91;;;23.72;45.25
22389;BME280;11362;48.102;11.620;2023-05-25T04:55:40;95542.72;;;23.72;45.18
22389;BME280;11362;48.102;11.620;2023-05-25T04:58:05;95542.72;;;23.72;45.24
22389;BME280;11362;48.102;11.620;2023-05-25T05:00:30;95557.78;;;23.71;45.14
22389;BME280;11362;48.102;11.620;2023-05-25T05:02:57;95553.81;;;23.72;45.34
22389;BME280;11362;48.102;11.620;2023-05-25T05:05:22;95545.84;;;23.74;45.31
22389;BME280;11362;48.102;11.620;2023-05-25T05:07:47;95550.16;;;23.79;45.75
22389;BME280;11362;48.102;11.620;2023-05-25T05:10:12;95552.94;;;23.79;46.11
22389;BME280;11362;48.102;11.620;2023-05-25T05:12:38;95560.84;;;23.80;46.13
22389;BME280;11362;48.102;11.620;2023-05-25T05:15:03;95563.22;;;23.82;46.37
22389;BME280;11362;48.102;11.620;2023-05-25T05:17:29;95569.19;;;23.80;46.72
22389;BME280;11362;48.102;11.620;2023-05-25T05:19:54;95562.78;;;23.83;46.97
22389;BME280;11362;48.102;11.620;2023-05-25T05:22:19;95573.50;;;23.85;46.92
22389;BME280;11362;48.102;11.620;2023-05-25T05:24:47;95575.09;;;23.86;46.97
22389;BME280;11362;48.102;11.620;2023-05-25T05:27:14;95574.69;;;23.84;47.08
22389;BME280;11362;48.102;11.620;2023-05-25T05:29:40;95578.66;;;23.86;47.31
22389;BME280;11362;48.102;11.620;2023-05-25T05:32:06;95584.59;;;23.88;47.32
22389;BME280;11362;48.102;11.620;2023-05-25T05:34:31;95575.06;;;23.89;47.79
22389;BME280;11362;48.102;11.620;2023-05-25T05:36:57;95571.91;;;23.87;47.37
22389;BME280;11362;48.102;11.620;2023-05-25T05:39:22;95581.03;;;23.84;47.43
22389;BME280;11362;48.102;11.620;2023-05-25T05:41:47;95583.81;;;23.84;47.56
22389;BME280;11362;48.102;11.620;2023-05-25T05:44:12;95578.66;;;23.83;47.38
22389;BME280;11362;48.102;11.620;2023-05-25T05:46:38;95581.44;;;23.83;47.27
22389;BME280;11362;48.102;11.620;2023-05-25T05:49:03;95583.00;;;23.84;47.12
22389;BME280;11362;48.102;11.620;2023-05-25T05:51:28;95590.13;;;23.85;47.21
22389;BME280;11362;48.102;11.620;2023-05-25T05:53:54;95594.91;;;23.84;47.06
22389;BME280;11362;48.102;11.620;2023-05-25T05:56:19;95588.56;;;23.84;47.06
22389;BME280;11362;48.102;11.620;2023-05-25T05:58:45;95586.19;;;23.82;46.87
22389;BME280;11362;48.102;11.620;2023-05-25T06:01:10;95591.38;;;23.80;46.65
22389;BME280;11362;48.102;11.620;2023-05-25T06:03:35;95583.03;;;23.80;46.99
22389;BME280;11362;48.102;11.620;2023-05-25T06:06:01;95578.31;;;23.81;46.60
22389;BME280;11362;48.102;11.620;2023-05-25T06:08:26;95578.72;;;23.79;46.64
22389;BME280;11362;48.102;11.620;2023-05-25T06:10:51;95587.03;;;23.79;46.53
22389;BME280;11362;48.102;11.620;2023-05-25T06:13:17;95589.81;;;23.79;46.42
22389;BME280;11362;48.102;11.620;2023-05-25T06:15:42;95599.69;;;23.80;46.22
22389;BME280;11362;48.102;11.620;2023-05-25T06:18:07;95598.13;;;23.79;46.35
22389;BME280;11362;48.102;11.620;2023-05-25T06:20:33;95606.44;;;23.79;46.23
22389;BME280;11362;48.102;11.620;2023-05-25T06:22:58;95600.53;;;23.77;46.22
22389;BME280;11362;48.102;11.620;2023-05-25T06:25:23;95606.06;;;23.77;46.37
22389;BME280;11362;48.102;11.620;2023-05-25T06:27:49;95606.84;;;23.78;46.35
22389;BME280;11362;48.102;11.620;2023-05-25T06:30:14;95603.69;;;23.76;46.44
22389;BME280;11362;48.102;11.620;2023-05-25T06:32:39;95606.84;;;23.78;46.34
22389;BME280;11362;48.102;11.620;2023-05-25T06:35:05;95603.31;;;23.77;46.42
22389;BME280;11362;48.102;11.620;2023-05-25T06:37:30;95612.00;;;23.79;46.30
22389;BME280;11362;48.102;11.620;2023-05-25T06:39:56;95611.19;;;23.79;46.30
22389;BME280;11362;48.102;11.620;2023-05-25T06:42:21;95611.19;;;23.79;46.17
22389;BME280;11362;48.102;11.620;2023-05-25T06:44:46;95621.91;;;23.77;46.09
22389;BME280;11362;48.102;11.620;2023-05-25T06:47:12;95623.78;;;23.43;43.44
22389;BME280;11362;48.102;11.620;2023-05-25T06:49:37;95618.41;;;23.19;42.75
22389;BME280;11362;48.102;11.620;2023-05-25T06:52:02;95625.56;;;23.13;42.00
22389;BME280;11362;48.102;11.620;2023-05-25T06:54:28;95624.03;;;23.01;41.34
22389;BME280;11362;48.102;11.620;2023-05-25T06:56:53;95624.84;;;22.98;41.34
22389;BME280;11362;48.102;11.620;2023-05-25T06:59:18;95627.16;;;23.17;41.70
22389;BME280;11362;48.102;11.620;2023-05-25T07:01:47;95621.88;;;23.33;42.13
22389;BME280;11362;48.102;11.620;2023-05-25T07:04:12;95623.41;;;23.41;42.24
22389;BME280;11362;48.102;11.620;2023-05-25T07:06:38;95627.72;;;23.45;42.53
22389;BME280;11362;48.102;11.620;2023-05-25T07:09:03;95630.88;;;23.47;42.80
22389;BME280;11362;48.102;11.620;2023-05-25T07:11:28;95637.59;;;23.50;42.92
22389;BME280;11362;48.102;11.620;2023-05-25T07:13:53;95631.63;;;23.51;43.16
22389;BME280;11362;48.102;11.620;2023-05-25T07:16:19;95630.44;;;23.52;43.26
22389;BME280;11362;48.102;11.620;2023-05-25T07:18:44;95633.19;;;23.56;43.46
22389;BME280;11362;48.102;11.620;2023-05-25T07:21:09;95628.44;;;23.56;43.51
22389;BME280;11362;48.102;11.620;2023-05-25T07:23:35;95636.75;;;23.56;43.62
22389;BME280;11362;48.102;11.620;2023-05-25T07:26:01;95631.59;;;23.58;43.87
22389;BME280;11362;48.102;11.620;2023-05-25T07:28:26;95631.97;;;23.60;43.81
22389;BME280;11362;48.102;11.620;2023-05-25T07:30:52;95646.22;;;23.59;44.03
22389;BME280;11362;48.102;11.620;2023-05-25T07:33:18;95639.50;;;23.60;44.14
22389;BME280;11362;48.102;11.620;2023-05-25T07:35:43;95643.06;;;23.60;44.17
22389;BME280;11362;48.102;11.620;2023-05-25T07:38:09;95635.94;;;23.59;44.23
22389;BME280;11362;48.102;11.620;2023-05-25T07:40:34;95640.28;;;23.60;44.37
22389;BME280;11362;48.102;11.620;2023-05-25T07:42:59;95641.84;;;23.61;44.37
22389;BME280;11362;48.102;11.620;2023-05-25T07:45:25;95648.16;;;23.65;44.26
22389;BME280;11362;48.102;11.620;2023-05-25T07:47:50;95642.25;;;23.63;44.17
22389;BME280;11362;48.102;11.620;2023-05-25T07:50:16;95657.63;;;23.71;44.24
22389;BME280;11362;48.102;11.620;2023-05-25T07:52:41;95656.50;;;23.65;44.46
22389;BME280;11362;48.102;11.620;2023-05-25T07:55:07;95655.31;;;23.63;44.74
22389;BME280;11362;48.102;11.620;2023-05-25T07:57:33;95658.09;;;23.63;44.81
22389;BME280;11362;48.102;11.620;2023-05-25T07:59:59;95653.75;;;23.62;44.79
22389;BME280;11362;48.102;11.620;2023-05-25T08:02:24;95657.66;;;23.68;44.81
22389;BME280;11362;48.102;11.620;2023-05-25T08:04:50;95663.19;;;23.71;45.77
22389;BME280;11362;48.102;11.620;2023-05-25T08:07:18;95663.56;;;23.73;45.78
22389;BME280;11362;48.102;11.620;2023-05-25T08:09:43;95661.16;;;23.75;46.08
22389;BME280;11362;48.102;11.620;2023-05-25T08:12:09;95667.88;;;23.78;46.17
22389;BME280;11362;48.102;11.620;2023-05-25T08:14:34;95671.44;;;23.78;46.12
22389;BME280;11362;48.102;11.620;2023-05-25T08:16:59;95670.25;;;23.79;46.03
22389;BME280;11362;48.102;11.620;2023-05-25T08:19:24;95678.56;;;23.79;46.17
22389;BME280;11362;48.102;11.620;2023-05-25T08:21:50;95680.13;;;23.80;46.17
22389;BME280;11362;48.102;11.620;2023-05-25T08:24:16;95682.91;;;23.80;46.34
22389;BME280;11362;48.102;11.620;2023-05-25T08:26:41;95679.34;;;23.80;46.31
22389;BME280;11362;48.102;11.620;2023-05-25T08:29:06;95682.91;;;23.80;46.12
22389;BME280;11362;48.102;11.620;2023-05-25T08:31:31;95675.78;;;23.79;46.15
22389;BME280;11362;48.102;11.620;2023-05-25T08:33:58;95679.78;;;23.78;46.29
22389;BME280;11362;48.102;11.620;2023-05-25T08:36:24;95680.53;;;23.79;46.47
22389;BME280;11362;48.102;11.620;2023-05-25T08:38:49;95680.13;;;23.80;46.39
22389;BME280;11362;48.102;11.620;2023-05-25T08:41:15;95682.13;;;23.80;46.36
22389;BME280;11362;48.102;11.620;2023-05-25T08:43:40;95682.13;;;23.80;46.36
22389;BME280;11362;48.102;11.620;2023-05-25T08:46:07;95680.53;;;23.79;46.39
22389;BME280;11362;48.102;11.620;2023-05-25T08:48:35;95688.47;;;23.80;46.65
22389;BME280;11362;48.102;11.620;2023-05-25T08:51:05;95688.47;;;23.80;46.49
22389;BME280;11362;48.102;11.620;2023-05-25T08:53:35;95686.88;;;23.79;46.46
22389;BME280;11362;48.102;11.620;2023-05-25T08:56:04;95678.16;;;23.81;46.58
22389;BME280;11362;48.102;11.620;2023-05-25T08:58:32;95670.63;;;23.81;46.64
22389;BME280;11362;48.102;11.620;2023-05-25T09:01:03;95674.97;;;23.82;46.62
22389;BME280;11362;48.102;11.620;2023-05-25T09:03:32;95688.84;;;23.82;46.56
22389;BME280;11362;48.102;11.620;2023-05-25T09:05:59;95696.38;;;23.82;46.62
22389;BME280;11362;48.102;11.620;2023-05-25T09:08:24;95695.19;;;23.83;46.58
22389;BME280;11362;48.102;11.620;2023-05-25T09:10:50;95697.16;;;23.82;46.62
22389;BME280;11362;48.102;11.620;2023-05-25T09:13:16;95695.19;;;23.83;46.61
22389;BME280;11362;48.102;11.620;2023-05-25T09:15:42;95697.16;;;23.82;46.77
22389;BME280;11362;48.102;11.620;2023-05-25T09:18:08;95697.56;;;23.84;46.77
22389;BME280;11362;48.102;11.620;2023-05-25T09:20:33;95700.34;;;23.84;46.57
22389;BME280;11362;48.102;11.620;2023-05-25T09:22:59;95704.28;;;23.83;46.61
22389;BME280;11362;48.102;11.620;2023-05-25T09:25:25;95707.06;;;23.83;46.78
22389;BME280;11362;48.102;11.620;2023-05-25T09:27:51;95711.03;;;23.82;46.61
22389;BME280;11362;48.102;11.620;2023-05-25T09:30:16;95711.03;;;23.82;46.79
22389;BME280;11362;48.102;11.620;2023-05-25T09:32:41;95708.25;;;23.82;46.71
22389;BME280;11362;48.102;11.620;2023-05-25T09:35:08;95713.81;;;23.82;46.86
22389;BME280;11362;48.102;11.620;2023-05-25T09:37:34;95716.97;;;23.84;46.73
22389;BME280;11362;48.102;11.620;2023-05-25T09:40:00;95713.78;;;23.89;46.55
22389;BME280;11362;48.102;11.620;2023-05-25T09:42:25;95719.31;;;23.89;46.85
22389;BME280;11362;48.102;11.620;2023-05-25T09:44:50;95726.09;;;23.88;47.01
22389;BME280;11362;48.102;11.620;2023-05-25T09:47:16;95722.13;;;23.86;47.09
22389;BME280;11362;48.102;11.620;2023-05-25T09:49:41;95713.00;;;23.89;47.13
22389;BME280;11362;48.102;11.620;2023-05-25T09:52:07;95723.31;;;23.88;46.75
22389;BME280;11362;48.102;11.620;2023-05-25T09:54:32;95711.84;;;23.86;46.96
22389;BME280;11362;48.102;11.620;2023-05-25T09:57:01;95724.09;;;23.89;47.17
22389;BME280;11362;48.102;11.620;2023-05-25T09:59:26;95730.44;;;23.89;47.23
22389;BME280;11362;48.102;11.620;2023-05-25T10:01:51;95724.50;;;23.87;47.16
22389;BME280;11362;48.102;11.620;2023-05-25T10:04:17;95727.28;;;23.87;47.10
22389;BME280;11362;48.102;11.620;2023-05-25T10:06:43;95732.84;;;23.87;47.00
22389;BME280;11362;48.102;11.620;2023-05-25T10:09:12;95727.69;;;23.86;47.02
22389;BME280;11362;48.102;11.620;2023-05-25T10:11:40;95730.44;;;23.89;46.97
22389;BME280;11362;48.102;11.620;2023-05-25T10:14:08;95735.22;;;23.89;46.99
22389;BME280;11362;48.102;11.620;2023-05-25T10:16:35;95728.06;;;23.88;46.85
22389;BME280;11362;48.102;11.620;2023-05-25T10:19:06;95744.69;;;23.88;46.88
22389;BME280;11362;48.102;11.620;2023-05-25T10:21:35;95738.41;;;23.80;44.89
22389;BME280;11362;48.102;11.620;2023-05-25T10:26:53;95729.94;;;23.43;43.70
22389;BME280;11362;48.102;11.620;2023-05-25T10:29:19;95739.84;;;23.41;43.04
22389;BME280;11362;48.102;11.620;2023-05-25T10:31:46;95737.94;;;23.31;42.27
22389;BME280;11362;48.102;11.620;2023-05-25T10:34:13;95739.56;;;23.22;42.10
22389;BME280;11362;48.102;11.620;2023-05-25T10:36:39;95726.84;;;23.28;42.90
22389;BME280;11362;48.102;11.620;2023-05-25T10:39:06;95729.97;;;23.37;43.13
22389;BME280;11362;48.102;11.620;2023-05-25T10:41:31;95720.78;;;23.46;43.39
22389;BME280;11362;48.102;11.620;2023-05-25T10:43:56;95725.53;;;23.53;43.54
22389;BME280;11362;48.102;11.620;2023-05-25T10:46:22;95722.72;;;23.56;43.75
22389;BME280;11362;48.102;11.620;2023-05-25T10:48:48;95727.44;;;23.59;43.90
22389;BME280;11362;48.102;11.620;2023-05-25T10:51:14;95715.97;;;23.61;44.04
22389;BME280;11362;48.102;11.620;2023-05-25T10:53:43;95726.63;;;23.62;44.14
22389;BME280;11362;48.102;11.620;2023-05-25T10:56:09;95728.59;;;23.65;44.48
22389;BME280;11362;48.102;11.620;2023-05-25T10:58:34;95729.38;;;23.66;44.20
22389;BME280;11362;48.102;11.620;2023-05-25T11:06:18;95736.50;;;23.70;44.84
22389;BME280;11362;48.102;11.620;2023-05-25T11:11:12;95720.22;;;23.72;45.05
22389;BME280;11362;48.102;11.620;2023-05-25T11:13:43;95729.75;;;23.71;45.05
22389;BME280;11362;48.102;11.620;2023-05-25T11:16:12;95723.00;;;23.72;44.97
22389;BME280;11362;48.102;11.620;2023-05-25T11:18:40;95727.34;;;23.73;45.11
22389;BME280;11362;48.102;11.620;2023-05-25T11:21:13;95722.19;;;23.75;45.25
22389;BME280;11362;48.102;11.620;2023-05-25T11:23:51;95719.41;;;23.75;45.21
22389;BME280;11362;48.102;11.620;2023-05-25T11:26:19;95730.50;;;23.75;45.40
22389;BME280;11362;48.102;11.620;2023-05-25T11:28:45;95715.44;;;23.76;45.54
22389;BME280;11362;48.102;11.620;2023-05-25T11:31:12;95719.38;;;23.79;45.83
22389;BME280;11362;48.102;11.620;2023-05-25T11:33:37;95722.94;;;23.79;45.81
22389;BME280;11362;48.102;11.620;2023-05-25T11:36:04;95722.56;;;23.81;45.99
22389;BME280;11362;48.102;11.620;2023-05-25T11:38:30;95712.22;;;23.81;46.09
22389;BME280;11362;48.102;11.620;2023-05-25T11:40:55;95711.84;;;23.83;45.84
22389;BME280;11362;48.102;11.620;2023-05-25T11:43:21;95709.06;;;23.83;45.85
22389;BME280;11362;48.102;11.620;2023-05-25T11:45:54;95710.63;;;23.84;45.74
22389;BME280;11362;48.102;11.620;2023-05-25T11:48:19;95714.22;;;23.84;45.77
22389;BME280;11362;48.102;11.620;2023-05-25T11:50:44;95676.53;;;23.83;45.51
22389;BME280;11362;48.102;11.620;2023-05-25T11:53:10;95679.31;;;23.83;45.73
22389;BME280;11362;48.102;11.620;2023-05-25T11:55:35;95678.13;;;23.84;45.61
22389;BME280;11362;48.102;11.620;2023-05-25T11:58:01;95707.47;;;23.85;45.91
22389;BME280;11362;48.102;11.620;2023-05-25T12:00:26;95706.28;;;23.86;45.80
22389;BME280;11362;48.102;11.620;2023-05-25T12:02:52;95709.81;;;23.90;45.85
22389;BME280;11362;48.102;11.620;2023-05-25T12:05:18;95719.31;;;23.89;45.23
22389;BME280;11362;48.102;11.620;2023-05-25T12:07:44;95709.09;;;23.79;44.36
22389;BME280;11362;48.102;11.620;2023-05-25T12:10:10;95709.13;;;23.72;43.49
22389;BME280;11362;48.102;11.620;2023-05-25T12:12:47;95703.25;;;23.63;43.13
22389;BME280;11362;48.102;11.620;2023-05-25T12:15:23;95708.75;;;23.70;43.35
22389;BME280;11362;48.102;11.620;2023-05-25T12:17:50;95702.84;;;23.65;42.84
22389;BME280;11362;48.102;11.620;2023-05-25T12:20:16;95704.44;;;23.62;42.62
22389;BME280;11362;48.102;11.620;2023-05-25T12:22:42;95705.22;;;23.66;42.62
22389;BME280;11362;48.102;11.620;2023-05-25T12:25:10;95709.22;;;23.62;42.27
22389;BME280;11362;48.102;11.620;2023-05-25T12:27:36;95703.31;;;23.56;42.15
22389;BME280;11362;48.102;11.620;2023-05-25T12:30:03;95702.13;;;23.54;42.40
22389;BME280;11362;48.102;11.620;2023-05-25T12:32:29;95698.94;;;23.55;42.36
22389;BME280;11362;48.102;11.620;2023-05-25T12:35:04;95693.38;;;23.55;42.71
22389;BME280;11362;48.102;11.620;2023-05-25T12:37:30;95698.94;;;23.55;42.61
22389;BME280;11362;48.102;11.620;2023-05-25T12:39:55;95701.34;;;23.50;42.53
22389;BME280;11362;48.102;11.620;2023-05-25T12:42:21;95700.59;;;23.49;42.41
22389;BME280;11362;48.102;11.620;2023-05-25T12:44:46;95693.09;;;23.43;42.35
22389;BME280;11362;48.102;11.620;2023-05-25T12:47:17;95698.56;;;23.53;42.49
22389;BME280;11362;48.102;11.620;2023-05-25T12:49:43;95693.38;;;23.55;42.87
22389;BME280;11362;48.102;11.620;2023-05-25T12:52:10;95697.34;;;23.58;42.69
22389;BME280;11362;48.102;11.620;2023-05-25T12:57:04;95683.47;;;23.58;42.61
22389;BME280;11362;48.102;11.620;2023-05-25T12:59:30;95684.66;;;23.60;42.93